createdAt,value
2017-10-05T00:00:17.866Z,33.04
2017-10-05T00:00:58.299Z,33.01
2017-10-05T00:01:38.711Z,33.04
2017-10-05T00:02:19.173Z,79.83
2017-10-05T00:02:59.610Z,79.93
2017-10-05T00:03:40.056Z,79.73
2017-10-05T00:05:52.765Z,79.73
2017-10-05T00:06:33.294Z,79.73
2017-10-05T00:07:13.712Z,79.44
2017-10-05T00:07:54.162Z,79.54
2017-10-05T00:08:34.612Z,79.73
2017-10-05T00:09:15.063Z,79.73
2017-10-05T00:09:55.472Z,79.54
2017-10-05T00:10:35.983Z,80.02
2017-10-05T00:11:16.399Z,80.11
2017-10-05T00:11:56.848Z,80.21
2017-10-05T00:12:37.319Z,80.11
2017-10-05T00:13:17.760Z,80.02
2017-10-05T00:13:58.209Z,80.02
2017-10-05T00:14:38.631Z,79.93
2017-10-05T00:15:26.056Z,80.02
2017-10-05T00:16:06.514Z,80.11
2017-10-05T00:16:46.909Z,79.73
2017-10-05T00:17:27.383Z,80.11
2017-10-05T00:18:07.818Z,80.11
2017-10-05T00:19:55.261Z,80.02
2017-10-05T00:20:35.819Z,79.83
2017-10-05T00:21:16.281Z,79.93
2017-10-05T00:21:56.806Z,79.83
2017-10-05T00:22:37.204Z,80.11
2017-10-05T00:23:17.661Z,80.21
2017-10-05T00:23:58.149Z,80.21
2017-10-05T00:24:38.587Z,80.11
2017-10-05T00:25:19.051Z,79.83
2017-10-05T00:25:59.557Z,80.11
2017-10-05T00:26:39.879Z,79.93
2017-10-05T00:27:20.344Z,79.83
2017-10-05T00:28:00.885Z,80.11
2017-10-05T00:28:41.297Z,79.64
2017-10-05T00:29:21.762Z,79.35
2017-10-05T00:30:02.160Z,79.44
2017-10-05T00:30:42.591Z,79.83
2017-10-05T00:31:23.093Z,79.64
2017-10-05T00:32:03.531Z,79.83
2017-10-05T00:32:43.969Z,79.44
2017-10-05T00:33:24.404Z,79.16
2017-10-05T00:34:04.837Z,79.64
2017-10-05T00:34:45.318Z,79.35
2017-10-05T00:35:25.768Z,79.35
2017-10-05T00:36:06.196Z,79.35
2017-10-05T00:36:46.635Z,79.73
2017-10-05T00:37:27.116Z,79.16
2017-10-05T00:38:07.571Z,79.35
2017-10-05T00:38:48.005Z,79.16
2017-10-05T00:39:28.461Z,79.64
2017-10-05T00:40:08.902Z,79.35
2017-10-05T00:40:49.360Z,79.35
2017-10-05T00:41:29.805Z,79.35
2017-10-05T00:42:10.252Z,79.54
2017-10-05T00:42:50.694Z,79.64
2017-10-05T00:43:31.107Z,79.44
2017-10-05T00:44:11.632Z,79.73
2017-10-05T00:44:52.102Z,79.54
2017-10-05T00:45:32.537Z,79.64
2017-10-05T00:46:12.943Z,79.64
2017-10-05T00:46:53.392Z,79.93
2017-10-05T00:47:33.839Z,79.93
2017-10-05T00:48:14.279Z,79.93
2017-10-05T00:48:54.726Z,80.02
2017-10-05T00:49:35.167Z,79.64
2017-10-05T00:50:15.610Z,80.3
2017-10-05T00:50:56.063Z,79.93
2017-10-05T00:51:36.537Z,80.11
2017-10-05T00:52:16.968Z,80.11
2017-10-05T00:52:57.549Z,80.02
2017-10-05T00:55:15.320Z,80.4
2017-10-05T00:55:55.781Z,80.3
2017-10-05T00:56:36.259Z,79.54
2017-10-05T00:57:16.715Z,79.93
2017-10-05T00:57:57.174Z,80.16
2017-10-05T00:58:37.675Z,80.44
2017-10-05T00:59:18.111Z,80.16
2017-10-05T00:59:59.274Z,80.25
2017-10-05T01:00:39.710Z,79.96
2017-10-05T01:01:20.192Z,80.35
2017-10-05T01:02:00.608Z,80.63
2017-10-05T01:02:41.041Z,80.5
2017-10-05T01:03:21.541Z,80.21
2017-10-05T01:04:01.926Z,80.25
2017-10-05T01:04:42.372Z,80.3
2017-10-05T01:05:22.798Z,80.16
2017-10-05T01:06:03.277Z,80.16
2017-10-05T01:06:43.709Z,80.16
2017-10-05T01:07:24.168Z,80.35
2017-10-05T01:08:04.625Z,80.25
2017-10-05T01:09:52.106Z,80.25
2017-10-05T01:10:32.579Z,80.25
2017-10-05T01:11:13.032Z,80.25
2017-10-05T01:11:53.452Z,80.35
2017-10-05T01:12:33.891Z,80.35
2017-10-05T01:13:14.328Z,80.54
2017-10-05T01:13:54.804Z,79.77
2017-10-05T01:14:35.256Z,80.06
2017-10-05T01:15:15.683Z,80.25
2017-10-05T01:15:56.092Z,80.35
2017-10-05T01:18:08.782Z,79.77
2017-10-05T01:18:49.266Z,80.06
2017-10-05T01:19:29.750Z,80.06
2017-10-05T01:20:10.178Z,80.35
2017-10-05T01:20:50.598Z,80.06
2017-10-05T01:21:31.095Z,79.87
2017-10-05T01:22:11.558Z,79.77
2017-10-05T01:23:59.052Z,80.25
2017-10-05T01:24:39.518Z,79.58
2017-10-05T01:25:19.972Z,79.68
2017-10-05T01:26:00.424Z,80.35
2017-10-05T01:26:40.943Z,79.58
2017-10-05T01:27:21.382Z,79.58
2017-10-05T01:28:01.825Z,79.68
2017-10-05T01:28:42.311Z,79.68
2017-10-05T01:29:22.829Z,79.39
2017-10-05T01:30:03.201Z,79.77
2017-10-05T01:30:43.652Z,79.39
2017-10-05T01:31:24.096Z,79.87
2017-10-05T01:32:04.526Z,79.96
2017-10-05T01:32:45.005Z,79.39
2017-10-05T01:33:25.445Z,79.68
2017-10-05T01:34:05.890Z,79.68
2017-10-05T01:34:46.321Z,79.68
2017-10-05T01:35:26.789Z,79.49
2017-10-05T01:36:07.280Z,79.49
2017-10-05T01:36:47.674Z,79.68
2017-10-05T01:38:45.298Z,79.58
2017-10-05T01:39:25.764Z,79.2
2017-10-05T01:40:06.233Z,79.39
2017-10-05T01:40:46.669Z,79.49
2017-10-05T01:41:27.131Z,79.49
2017-10-05T01:42:07.572Z,79.49
2017-10-05T01:42:48.022Z,80.16
2017-10-05T01:43:28.493Z,80.06
2017-10-05T01:44:09.678Z,79.68
2017-10-05T01:44:50.127Z,79.29
2017-10-05T01:45:30.552Z,79.29
2017-10-05T01:46:11.058Z,79.87
2017-10-05T01:46:51.558Z,79.96
2017-10-05T01:48:44.076Z,79.68
2017-10-05T01:49:24.535Z,79.39
2017-10-05T01:50:05.006Z,79.68
2017-10-05T01:50:45.507Z,79.39
2017-10-05T01:51:25.975Z,79.39
2017-10-05T01:52:06.415Z,79.58
2017-10-05T01:52:46.830Z,79.49
2017-10-05T01:53:27.270Z,79.2
2017-10-05T01:54:07.724Z,79.29
2017-10-05T01:54:48.161Z,79.39
2017-10-05T01:55:28.613Z,79.2
2017-10-05T01:56:09.058Z,79.2
2017-10-05T01:56:49.468Z,79.2
2017-10-05T01:57:29.939Z,79.87
2017-10-05T01:58:10.348Z,79.49
2017-10-05T01:58:50.804Z,79.39
2017-10-05T01:59:31.292Z,79.58
2017-10-05T02:00:11.741Z,79.68
2017-10-05T02:02:24.461Z,79.1
2017-10-05T02:03:04.900Z,79.1
2017-10-05T02:03:45.345Z,78.91
2017-10-05T02:04:25.840Z,78.91
2017-10-05T02:05:06.340Z,79.49
2017-10-05T02:05:46.807Z,79.77
2017-10-05T02:06:27.257Z,78.91
2017-10-05T02:08:24.885Z,79.1
2017-10-05T02:09:05.310Z,79.68
2017-10-05T02:09:45.760Z,79.39
2017-10-05T02:10:26.194Z,79
2017-10-05T02:12:13.666Z,79.2
2017-10-05T02:12:54.144Z,78.72
2017-10-05T02:13:34.625Z,78.72
2017-10-05T02:14:15.058Z,79.2
2017-10-05T02:14:55.545Z,78.72
2017-10-05T02:15:36.023Z,78.63
2017-10-05T02:16:16.481Z,78.72
2017-10-05T02:16:56.951Z,78.72
2017-10-05T02:17:37.387Z,78.63
2017-10-05T02:19:55.178Z,78.43
2017-10-05T02:20:35.652Z,78.43
2017-10-05T02:21:16.105Z,77.86
2017-10-05T02:23:29.114Z,77.8
2017-10-05T02:24:09.553Z,78.14
2017-10-05T02:24:50.008Z,77.61
2017-10-05T02:25:30.434Z,77.86
2017-10-05T02:26:10.902Z,77.38
2017-10-05T02:26:51.317Z,78.09
2017-10-05T02:27:31.799Z,77.86
2017-10-05T02:28:12.213Z,77.67
2017-10-05T02:28:52.644Z,77.95
2017-10-05T02:29:33.086Z,77.57
2017-10-05T02:30:13.521Z,77.48
2017-10-05T02:30:53.978Z,77.95
2017-10-05T02:31:34.437Z,77.38
2017-10-05T02:32:14.898Z,77.38
2017-10-05T02:32:55.329Z,77.48
2017-10-05T02:33:35.769Z,77.67
2017-10-05T02:34:16.191Z,77.48
2017-10-05T02:34:56.618Z,77.51
2017-10-05T02:35:37.072Z,77.42
2017-10-05T02:36:17.518Z,77.19
2017-10-05T02:36:57.973Z,77.48
2017-10-05T02:37:38.467Z,77.48
2017-10-05T02:39:51.159Z,77.61
2017-10-05T02:40:31.612Z,77.61
2017-10-05T02:41:12.091Z,77.48
2017-10-05T02:41:52.511Z,77.76
2017-10-05T02:42:32.957Z,77.67
2017-10-05T02:44:45.745Z,77.33
2017-10-05T02:45:26.151Z,77.13
2017-10-05T02:46:06.619Z,77.67
2017-10-05T02:46:47.111Z,77.23
2017-10-05T02:47:27.617Z,77.23
2017-10-05T02:48:08.089Z,77.33
2017-10-05T02:48:48.528Z,77.33
2017-10-05T02:49:29.007Z,77.33
2017-10-05T02:50:09.466Z,76.75
2017-10-05T02:50:49.959Z,77.23
2017-10-05T02:51:30.358Z,76.56
2017-10-05T02:52:10.791Z,77.33
2017-10-05T02:52:51.256Z,77.33
2017-10-05T02:53:31.692Z,77
2017-10-05T02:54:12.151Z,76.65
2017-10-05T02:54:52.677Z,76.75
2017-10-05T02:55:33.088Z,77.04
2017-10-05T02:56:13.495Z,76.75
2017-10-05T02:56:53.950Z,76.75
2017-10-05T02:57:34.425Z,76.75
2017-10-05T02:58:14.850Z,76.46
2017-10-05T02:58:55.303Z,76.46
2017-10-05T02:59:35.742Z,76.46
2017-10-05T03:00:16.195Z,76.84
2017-10-05T03:00:56.634Z,76.56
2017-10-05T03:01:37.056Z,76.84
2017-10-05T03:02:17.482Z,76.65
2017-10-05T03:02:57.933Z,77.13
2017-10-05T03:05:15.687Z,76.65
2017-10-05T03:05:56.162Z,76.65
2017-10-05T03:06:36.581Z,76.84
2017-10-05T03:07:17.004Z,76.94
2017-10-05T03:07:57.452Z,76.84
2017-10-05T03:08:37.917Z,76.71
2017-10-05T03:09:18.364Z,76.56
2017-10-05T03:09:58.798Z,76.94
2017-10-05T03:10:39.275Z,76.56
2017-10-05T03:11:19.708Z,76.75
2017-10-05T03:12:00.156Z,76.56
2017-10-05T03:13:52.725Z,76.75
2017-10-05T03:14:33.273Z,77.13
2017-10-05T03:15:13.672Z,76.56
2017-10-05T03:15:54.142Z,76.75
2017-10-05T03:16:34.555Z,76.56
2017-10-05T03:17:15.057Z,76.75
2017-10-05T03:17:55.476Z,77.33
2017-10-05T03:18:35.949Z,77.33
2017-10-05T03:20:48.681Z,77.13
2017-10-05T03:21:29.173Z,76.94
2017-10-05T03:22:09.678Z,77.23
2017-10-05T03:22:50.086Z,76.56
2017-10-05T03:23:30.526Z,76.84
2017-10-05T03:24:10.966Z,76.84
2017-10-05T03:24:51.419Z,77.28
2017-10-05T03:25:31.819Z,77.23
2017-10-05T03:26:12.278Z,77.13
2017-10-05T03:26:52.696Z,77.13
2017-10-05T03:27:33.142Z,77
2017-10-05T03:28:13.527Z,77.8
2017-10-05T03:28:53.967Z,77.23
2017-10-05T03:29:34.466Z,77.33
2017-10-05T03:30:14.900Z,77.04
2017-10-05T03:30:55.354Z,77.33
2017-10-05T03:31:35.755Z,77.04
2017-10-05T03:32:16.219Z,77.28
2017-10-05T03:32:56.778Z,77.33
2017-10-05T03:33:37.230Z,77.33
2017-10-05T03:34:17.653Z,77.04
2017-10-05T03:34:58.144Z,77.33
2017-10-05T03:35:38.596Z,77.13
2017-10-05T03:36:19.030Z,77.19
2017-10-05T03:36:59.507Z,76.84
2017-10-05T03:37:39.945Z,77.19
2017-10-05T03:39:52.625Z,77.13
2017-10-05T03:40:33.052Z,77.33
2017-10-05T03:41:13.502Z,77.33
2017-10-05T03:41:53.931Z,77.28
2017-10-05T03:42:34.375Z,77.09
2017-10-05T03:44:47.077Z,77.19
2017-10-05T03:45:27.576Z,77.67
2017-10-05T03:46:08.037Z,77.57
2017-10-05T03:46:48.469Z,33.44
2017-10-05T03:47:28.898Z,33.4
2017-10-05T03:48:09.328Z,77.28
2017-10-05T03:48:49.800Z,33.42
2017-10-05T03:49:30.275Z,33.41
2017-10-05T03:50:10.701Z,77.28
2017-10-05T03:50:51.178Z,77.28
2017-10-05T03:51:31.614Z,77.28
2017-10-05T03:52:12.074Z,77.19
2017-10-05T03:52:52.521Z,77.19
2017-10-05T03:53:32.933Z,77.19
2017-10-05T03:54:13.373Z,77.09
2017-10-05T03:54:54.414Z,77.28
2017-10-05T03:55:34.860Z,77.09
2017-10-05T03:56:15.289Z,77
2017-10-05T03:56:55.751Z,76.9
2017-10-05T03:57:36.158Z,76.9
2017-10-05T03:58:16.607Z,76.9
2017-10-05T03:58:57.093Z,76.71
2017-10-05T03:59:37.562Z,76.81
2017-10-05T04:00:18.042Z,76.81
2017-10-05T04:00:58.490Z,76.81
2017-10-05T04:01:38.926Z,76.81
2017-10-05T04:02:19.398Z,76.71
2017-10-05T04:02:59.875Z,76.81
2017-10-05T04:03:40.323Z,76.9
2017-10-05T04:04:20.760Z,76.9
2017-10-05T04:05:01.242Z,76.9
2017-10-05T04:05:41.694Z,77
2017-10-05T04:06:22.142Z,77.09
2017-10-05T04:07:02.687Z,77
2017-10-05T04:09:15.318Z,76.52
2017-10-05T04:09:55.804Z,77
2017-10-05T04:10:36.231Z,76.81
2017-10-05T04:11:16.721Z,76.71
2017-10-05T04:11:57.140Z,76.71
2017-10-05T04:12:37.594Z,76.42
2017-10-05T04:13:18.032Z,76.62
2017-10-05T04:15:05.469Z,76.14
2017-10-05T04:15:45.955Z,76.62
2017-10-05T04:16:26.422Z,76.52
2017-10-05T04:17:06.924Z,76.81
2017-10-05T04:17:47.334Z,76.23
2017-10-05T04:18:27.748Z,76.62
2017-10-05T04:19:08.177Z,76.62
2017-10-05T04:19:48.633Z,76.14
2017-10-05T04:21:36.145Z,76.04
2017-10-05T04:22:16.589Z,76.04
2017-10-05T04:22:57.102Z,76.23
2017-10-05T04:23:37.604Z,75.95
2017-10-05T04:24:18.032Z,76.14
2017-10-05T04:24:58.471Z,75.76
2017-10-05T04:25:38.913Z,76.04
2017-10-05T04:26:19.338Z,76.04
2017-10-05T04:26:59.767Z,76.23
2017-10-05T04:27:40.215Z,76.52
2017-10-05T04:28:20.682Z,76.33
2017-10-05T04:29:01.153Z,76.33
2017-10-05T04:29:41.543Z,76.14
2017-10-05T04:30:21.969Z,76.23
2017-10-05T04:31:02.393Z,76.23
2017-10-05T04:31:42.855Z,75.66
2017-10-05T04:32:23.302Z,75.56
2017-10-05T04:33:03.767Z,75.7
2017-10-05T04:33:44.238Z,75.76
2017-10-05T04:34:24.664Z,75.66
2017-10-05T04:35:05.074Z,75.76
2017-10-05T04:35:46.093Z,76.04
2017-10-05T04:36:26.536Z,75.66
2017-10-05T04:37:06.981Z,75.56
2017-10-05T04:37:47.377Z,75.18
2017-10-05T04:38:27.842Z,75.85
2017-10-05T04:39:08.311Z,75.18
2017-10-05T04:39:48.768Z,76.08
2017-10-05T04:40:29.209Z,75.66
2017-10-05T04:41:09.744Z,75.47
2017-10-05T04:41:50.145Z,75.76
2017-10-05T04:42:30.571Z,75.56
2017-10-05T04:43:11.110Z,75.85
2017-10-05T04:43:51.558Z,75.76
2017-10-05T04:44:31.993Z,75.66
2017-10-05T04:45:12.452Z,75.47
2017-10-05T04:45:52.879Z,75.76
2017-10-05T04:46:33.331Z,75.76
2017-10-05T04:47:13.773Z,75.66
2017-10-05T04:47:55.032Z,75.76
2017-10-05T04:48:35.514Z,75.18
2017-10-05T04:49:16.002Z,75.27
2017-10-05T04:49:56.414Z,75.56
2017-10-05T04:50:36.863Z,75.85
2017-10-05T04:51:17.293Z,76.04
2017-10-05T04:51:57.741Z,75.47
2017-10-05T04:52:38.180Z,75.76
2017-10-05T04:53:18.639Z,75.85
2017-10-05T04:53:59.096Z,76.14
2017-10-05T04:54:39.545Z,75.95
2017-10-05T04:55:20.038Z,75.76
2017-10-05T04:56:00.484Z,76.42
2017-10-05T04:56:40.942Z,75.85
2017-10-05T04:57:21.451Z,75.76
2017-10-05T04:58:01.895Z,76.52
2017-10-05T04:58:42.328Z,76.14
2017-10-05T04:59:23.613Z,76.04
2017-10-05T05:00:04.049Z,76.42
2017-10-05T05:00:44.493Z,76.14
2017-10-05T05:01:24.940Z,76.23
2017-10-05T05:02:05.410Z,76.14
2017-10-05T05:02:45.850Z,76.04
2017-10-05T05:03:26.341Z,76.23
2017-10-05T05:04:06.776Z,76.04
2017-10-05T05:04:47.249Z,76.33
2017-10-05T05:05:27.647Z,76.52
2017-10-05T05:06:08.073Z,75.85
2017-10-05T05:06:48.567Z,76.04
2017-10-05T05:07:28.997Z,75.76
2017-10-05T05:08:09.459Z,76.04
2017-10-05T05:08:49.914Z,76.04
2017-10-05T05:09:30.353Z,76.04
2017-10-05T05:10:10.798Z,76.04
2017-10-05T05:10:51.266Z,75.66
2017-10-05T05:11:31.698Z,75.56
2017-10-05T05:12:12.146Z,76.14
2017-10-05T05:12:52.557Z,75.95
2017-10-05T05:13:32.982Z,75.56
2017-10-05T05:14:13.435Z,75.95
2017-10-05T05:14:53.862Z,76.14
2017-10-05T05:15:34.342Z,75.66
2017-10-05T05:16:14.847Z,75.76
2017-10-05T05:16:55.247Z,76.14
2017-10-05T05:17:35.667Z,75.66
2017-10-05T05:18:16.101Z,75.76
2017-10-05T05:18:56.592Z,75.66
2017-10-05T05:19:37.076Z,76.14
2017-10-05T05:20:17.457Z,75.66
2017-10-05T05:20:57.901Z,75.56
2017-10-05T05:21:38.347Z,76.33
2017-10-05T05:22:18.806Z,76.62
2017-10-05T05:22:59.219Z,75.95
2017-10-05T05:23:39.657Z,76.23
2017-10-05T05:24:20.088Z,75.95
2017-10-05T05:25:00.523Z,76.23
2017-10-05T05:25:41.073Z,76.04
2017-10-05T05:26:22.338Z,76.23
2017-10-05T05:27:02.803Z,76.14
2017-10-05T05:27:43.285Z,75.85
2017-10-05T05:28:23.690Z,76.33
2017-10-05T05:29:04.124Z,76.52
2017-10-05T05:31:16.803Z,75.76
2017-10-05T05:31:57.319Z,75.95
2017-10-05T05:32:37.801Z,75.95
2017-10-05T05:33:18.322Z,75.76
2017-10-05T05:33:58.808Z,75.95
2017-10-05T05:34:39.379Z,75.85
2017-10-05T05:35:19.864Z,75.56
2017-10-05T05:36:00.317Z,75.47
2017-10-05T05:36:41.581Z,75.76
2017-10-05T05:37:22.057Z,75.47
2017-10-05T05:38:02.520Z,75.85
2017-10-05T05:38:42.958Z,75.66
2017-10-05T05:39:23.412Z,75.85
2017-10-05T05:40:03.900Z,75.27
2017-10-05T05:40:44.323Z,75.66
2017-10-05T05:41:24.750Z,75.95
2017-10-05T05:42:05.166Z,74.99
2017-10-05T05:42:45.644Z,75.18
2017-10-05T05:43:26.082Z,75.27
2017-10-05T05:44:06.529Z,75.18
2017-10-05T05:44:47.696Z,75.37
2017-10-05T05:47:00.471Z,74.9
2017-10-05T05:47:40.917Z,75.47
2017-10-05T05:48:21.405Z,75.66
2017-10-05T05:49:01.876Z,75.22
2017-10-05T05:49:42.404Z,74.93
2017-10-05T05:50:22.861Z,74.51
2017-10-05T05:51:03.299Z,75.47
2017-10-05T05:51:43.750Z,75.47
2017-10-05T05:52:24.218Z,75.47
2017-10-05T05:53:04.655Z,75.02
2017-10-05T05:54:52.123Z,74.8
2017-10-05T05:55:32.617Z,74.61
2017-10-05T05:56:13.074Z,74.8
2017-10-05T05:56:53.544Z,74.61
2017-10-05T05:57:33.947Z,74.7
2017-10-05T05:59:51.710Z,74.45
2017-10-05T06:00:32.183Z,74.84
2017-10-05T06:01:12.685Z,75.02
2017-10-05T06:01:53.108Z,74.7
2017-10-05T06:02:33.561Z,74.99
2017-10-05T06:03:14.063Z,75.31
2017-10-05T06:03:54.523Z,74.45
2017-10-05T06:04:34.995Z,74.84
2017-10-05T06:05:15.424Z,75.41
2017-10-05T06:05:55.848Z,74.65
2017-10-05T06:06:36.335Z,74.84
2017-10-05T06:07:16.809Z,74.61
2017-10-05T06:07:57.283Z,74.99
2017-10-05T06:08:37.721Z,75.02
2017-10-05T06:09:18.151Z,74.41
2017-10-05T06:09:58.581Z,74.65
2017-10-05T06:10:39.086Z,75.12
2017-10-05T06:11:19.490Z,74.45
2017-10-05T06:13:06.978Z,74.84
2017-10-05T06:13:47.416Z,74.93
2017-10-05T06:14:27.899Z,74.93
2017-10-05T06:15:08.327Z,74.93
2017-10-05T06:15:48.787Z,74.65
2017-10-05T06:16:29.252Z,74.65
2017-10-05T06:17:09.759Z,74.45
2017-10-05T06:17:50.203Z,74.55
2017-10-05T06:18:30.681Z,74.65
2017-10-05T06:19:11.111Z,74.55
2017-10-05T06:19:51.540Z,74.16
2017-10-05T06:20:31.983Z,74.55
2017-10-05T06:21:12.488Z,75.02
2017-10-05T06:21:52.904Z,74.65
2017-10-05T06:22:33.371Z,74.55
2017-10-05T06:23:13.830Z,74.55
2017-10-05T06:23:54.279Z,74.36
2017-10-05T06:24:34.721Z,74.55
2017-10-05T06:25:15.216Z,74.36
2017-10-05T06:25:55.717Z,74.45
2017-10-05T06:26:36.115Z,74.36
2017-10-05T06:27:16.557Z,74.36
2017-10-05T06:27:57.066Z,73.69
2017-10-05T06:28:37.501Z,74.65
2017-10-05T06:29:17.964Z,74.16
2017-10-05T06:29:58.519Z,74.45
2017-10-05T06:30:38.972Z,74.65
2017-10-05T06:31:19.432Z,73.88
2017-10-05T06:31:59.864Z,74.16
2017-10-05T06:32:40.836Z,74.07
2017-10-05T06:33:21.264Z,74.07
2017-10-05T06:34:01.732Z,73.97
2017-10-05T06:34:42.181Z,73.79
2017-10-05T06:35:22.600Z,73.59
2017-10-05T06:36:03.126Z,73.91
2017-10-05T06:36:43.614Z,73.5
2017-10-05T06:37:24.051Z,74.07
2017-10-05T06:38:04.558Z,73.69
2017-10-05T06:38:44.982Z,73.63
2017-10-05T06:39:25.439Z,73.59
2017-10-05T06:40:05.896Z,73.5
2017-10-05T06:40:46.352Z,73.34
2017-10-05T06:41:26.784Z,73.69
2017-10-05T06:42:07.216Z,73.88
2017-10-05T06:42:47.690Z,73.34
2017-10-05T06:43:28.132Z,73.34
2017-10-05T06:44:08.592Z,73.34
2017-10-05T06:44:49.042Z,73.72
2017-10-05T06:45:29.461Z,73.69
2017-10-05T06:46:09.927Z,73.82
2017-10-05T06:46:50.354Z,73.63
2017-10-05T06:47:30.774Z,73.34
2017-10-05T06:48:11.236Z,73.34
2017-10-05T06:50:29.049Z,72.96
2017-10-05T06:51:09.545Z,73.15
2017-10-05T06:51:50.017Z,72.77
2017-10-05T06:52:30.454Z,72.77
2017-10-05T06:53:11.013Z,72.77
2017-10-05T06:53:51.462Z,72.77
2017-10-05T06:54:31.971Z,72.8
2017-10-05T06:55:12.455Z,72.58
2017-10-05T06:55:52.935Z,72.99
2017-10-05T06:56:33.451Z,72.67
2017-10-05T06:57:13.988Z,73.05
2017-10-05T06:57:54.396Z,72.96
2017-10-05T06:58:34.882Z,73.05
2017-10-05T06:59:15.352Z,72.61
2017-10-05T06:59:55.859Z,72.9
2017-10-05T07:01:48.345Z,72.42
2017-10-05T07:02:28.811Z,72.61
2017-10-05T07:03:09.313Z,72.32
2017-10-05T07:03:49.782Z,72.42
2017-10-05T07:04:30.265Z,72.52
2017-10-05T07:05:10.774Z,72.32
2017-10-05T07:05:51.212Z,72.03
2017-10-05T07:06:31.740Z,71.75
2017-10-05T07:07:12.245Z,72.23
2017-10-05T07:07:52.709Z,71.84
2017-10-05T07:08:33.176Z,71.56
2017-10-05T07:09:13.646Z,71.84
2017-10-05T07:09:54.121Z,72.23
2017-10-05T07:13:19.398Z,71.27
2017-10-05T07:13:59.890Z,71.02
2017-10-05T07:14:40.378Z,70.64
2017-10-05T07:15:20.854Z,70.83
2017-10-05T07:16:01.304Z,69.87
2017-10-05T07:16:42.116Z,69.96
2017-10-05T07:17:22.598Z,69.68
2017-10-05T07:18:03.115Z,69.96
2017-10-05T07:19:50.635Z,70.06
2017-10-05T07:20:31.228Z,69.87
2017-10-05T07:21:11.687Z,69.77
2017-10-05T07:21:52.158Z,69.62
2017-10-05T07:22:32.686Z,69.33
2017-10-05T07:23:13.127Z,69.52
2017-10-05T07:23:53.603Z,69.52
2017-10-05T07:24:34.063Z,68.85
2017-10-05T07:25:14.553Z,68.95
2017-10-05T07:25:55.008Z,68.75
2017-10-05T07:26:35.528Z,68.3
2017-10-05T07:28:48.290Z,67.16
2017-10-05T07:29:28.784Z,66.61
2017-10-05T07:31:26.435Z,64.47
2017-10-05T07:32:06.920Z,64.18
2017-10-05T07:32:47.460Z,62.84
2017-10-05T07:33:27.897Z,62.87
2017-10-05T07:34:08.489Z,63.35
2017-10-05T07:34:49.005Z,62.77
2017-10-05T07:35:29.459Z,62.58
2017-10-05T07:36:09.885Z,62.38
2017-10-05T07:36:50.412Z,62.74
2017-10-05T07:37:30.869Z,63.41
2017-10-05T07:38:11.334Z,63.6
2017-10-05T07:38:51.836Z,63.76
2017-10-05T07:39:32.316Z,64.76
2017-10-05T07:40:12.812Z,63.7
2017-10-05T07:42:30.671Z,65.75
2017-10-05T07:43:11.190Z,65.46
2017-10-05T07:43:51.713Z,66.03
2017-10-05T07:44:32.128Z,65.94
2017-10-05T07:45:12.684Z,66.13
2017-10-05T07:45:53.215Z,66.13
2017-10-05T07:46:33.747Z,65.94
2017-10-05T07:47:14.363Z,66.13
2017-10-05T07:47:54.955Z,66.03
2017-10-05T07:48:35.493Z,66.03
2017-10-05T07:49:16.015Z,66.13
2017-10-05T07:49:56.497Z,66.71
2017-10-05T07:50:37.075Z,66.8
2017-10-05T07:52:54.933Z,66.33
2017-10-05T07:53:35.470Z,66.52
2017-10-05T07:54:16.019Z,66.8
2017-10-05T07:54:56.509Z,66.13
2017-10-05T07:55:37.061Z,66.61
2017-10-05T07:56:17.606Z,66.23
2017-10-05T07:56:58.069Z,66.33
2017-10-05T07:57:38.508Z,66.9
2017-10-05T07:58:18.991Z,66.8
2017-10-05T07:58:59.434Z,66.33
2017-10-05T07:59:39.940Z,65.94
2017-10-05T08:00:20.393Z,66.71
2017-10-05T08:01:01.009Z,66.16
2017-10-05T08:01:41.427Z,65.36
2017-10-05T08:02:21.892Z,66.13
2017-10-05T08:03:02.331Z,66.23
2017-10-05T08:03:42.747Z,66.03
2017-10-05T08:04:23.224Z,66.13
2017-10-05T08:05:03.636Z,66.07
2017-10-05T08:05:44.127Z,65.94
2017-10-05T08:06:24.591Z,65.84
2017-10-05T08:08:37.327Z,64.72
2017-10-05T08:09:18.447Z,64.18
2017-10-05T08:09:59.136Z,63.92
2017-10-05T08:10:39.600Z,62.61
2017-10-05T08:11:20.021Z,62.03
2017-10-05T08:12:00.524Z,60.72
2017-10-05T08:12:40.979Z,60.62
2017-10-05T08:13:21.423Z,59.59
2017-10-05T08:14:01.862Z,58.75
2017-10-05T08:14:42.314Z,58.27
2017-10-05T08:15:22.834Z,57.72
2017-10-05T08:16:03.295Z,56.37
2017-10-05T08:18:16.080Z,55.92
2017-10-05T08:18:56.546Z,55.73
2017-10-05T08:19:37.098Z,55.6
2017-10-05T08:20:17.580Z,55.99
2017-10-05T08:20:58.080Z,57.12
2017-10-05T08:21:38.637Z,57.79
2017-10-05T08:22:19.111Z,58.15
2017-10-05T08:22:59.595Z,57.47
2017-10-05T08:24:57.300Z,58.7
2017-10-05T08:25:37.699Z,59.27
2017-10-05T08:26:18.217Z,59.44
2017-10-05T08:26:58.729Z,59.66
2017-10-05T08:27:39.196Z,59.17
2017-10-05T08:28:19.720Z,58.82
2017-10-05T08:29:00.232Z,58.7
2017-10-05T08:29:40.803Z,58.34
2017-10-05T08:30:21.277Z,57.89
2017-10-05T08:31:02.375Z,57.4
2017-10-05T08:31:42.872Z,57.31
2017-10-05T08:32:23.523Z,57.31
2017-10-05T08:33:04.008Z,57.02
2017-10-05T08:33:44.439Z,57.31
2017-10-05T08:34:24.926Z,56.27
2017-10-05T08:35:06.428Z,37.25
2017-10-05T08:35:46.921Z,56.44
2017-10-05T08:36:27.466Z,56.18
2017-10-05T08:38:45.413Z,37.23
2017-10-05T08:39:25.885Z,37.33
2017-10-05T08:40:06.436Z,37.48
2017-10-05T08:40:46.979Z,37.46
2017-10-05T08:41:27.538Z,37.38
2017-10-05T08:42:07.991Z,37.37
2017-10-05T08:42:48.515Z,37.52
2017-10-05T08:43:29.002Z,37.68
2017-10-05T08:44:09.509Z,37.63
2017-10-05T08:46:27.408Z,37.29
2017-10-05T08:47:07.877Z,37.38
2017-10-05T08:47:48.340Z,37.48
2017-10-05T08:48:28.834Z,37.59
2017-10-05T08:49:09.306Z,53.83
2017-10-05T08:49:49.831Z,37.59
2017-10-05T08:50:30.948Z,37.51
2017-10-05T08:51:11.406Z,37.41
2017-10-05T08:51:51.909Z,37.33
2017-10-05T08:52:32.356Z,37.44
2017-10-05T08:53:12.874Z,37.37
2017-10-05T08:53:53.392Z,37.14
2017-10-05T08:54:33.907Z,37.05
2017-10-05T08:55:14.331Z,37.07
2017-10-05T08:55:54.779Z,36.96
2017-10-05T08:56:35.301Z,37.01
2017-10-05T08:57:15.775Z,37.1
2017-10-05T08:57:56.972Z,37.07
2017-10-05T08:58:37.526Z,56.25
2017-10-05T08:59:18.086Z,56.54
2017-10-05T08:59:58.473Z,56.73
2017-10-05T09:00:39.021Z,36.87
2017-10-05T09:01:19.482Z,36.8
2017-10-05T09:01:59.906Z,36.69
2017-10-05T09:02:40.435Z,36.65
2017-10-05T09:03:20.947Z,36.63
2017-10-05T09:04:01.555Z,36.49
2017-10-05T09:04:42.075Z,36.37
2017-10-05T09:05:22.560Z,36.52
2017-10-05T09:07:40.360Z,36.47
2017-10-05T09:08:20.804Z,36.62
2017-10-05T09:09:01.240Z,36.74
2017-10-05T09:09:41.753Z,36.8
2017-10-05T09:10:22.173Z,36.9
2017-10-05T09:11:02.646Z,36.8
2017-10-05T09:11:43.212Z,36.74
2017-10-05T09:12:23.741Z,36.52
2017-10-05T09:13:04.151Z,36.47
2017-10-05T09:13:44.601Z,36.34
2017-10-05T09:16:02.439Z,36.49
2017-10-05T09:16:42.944Z,36.45
2017-10-05T09:17:23.423Z,59.08
2017-10-05T09:18:03.923Z,36.54
2017-10-05T09:20:16.713Z,58.02
2017-10-05T09:20:57.331Z,58.02
2017-10-05T09:21:37.822Z,59.08
2017-10-05T09:22:18.288Z,59.63
2017-10-05T09:22:58.727Z,59.47
2017-10-05T09:23:39.241Z,59.2
2017-10-05T09:24:19.671Z,58.98
2017-10-05T09:25:00.183Z,58.6
2017-10-05T09:25:40.714Z,58.72
2017-10-05T09:26:21.201Z,59.27
2017-10-05T09:27:01.697Z,36.54
2017-10-05T09:27:42.153Z,36.6
2017-10-05T09:28:22.555Z,36.63
2017-10-05T09:29:03.044Z,36.51
2017-10-05T09:31:00.728Z,36.71
2017-10-05T09:31:41.323Z,36.6
2017-10-05T09:32:21.732Z,36.62
2017-10-05T09:33:02.678Z,58.6
2017-10-05T09:33:43.789Z,36.65
2017-10-05T09:34:25.029Z,36.63
2017-10-05T09:35:05.645Z,36.71
2017-10-05T09:35:47.076Z,36.73
2017-10-05T09:36:27.364Z,36.86
2017-10-05T09:37:07.808Z,36.82
2017-10-05T09:37:48.262Z,36.68
2017-10-05T09:38:28.790Z,36.71
2017-10-05T09:39:09.278Z,36.71
2017-10-05T09:39:49.772Z,36.73
2017-10-05T09:40:30.329Z,36.8
2017-10-05T09:41:10.807Z,36.74
2017-10-05T09:41:51.310Z,36.61
2017-10-05T09:42:31.821Z,36.69
2017-10-05T09:43:12.398Z,36.76
2017-10-05T09:43:52.825Z,36.69
2017-10-05T09:44:33.296Z,36.73
2017-10-05T09:45:13.803Z,36.82
2017-10-05T09:45:54.286Z,36.86
2017-10-05T09:46:35.018Z,36.89
2017-10-05T09:47:15.797Z,36.9
2017-10-05T09:47:56.575Z,36.9
2017-10-05T09:48:37.966Z,56.35